createdAt,value
2024-03-24T00:21:42.775Z,0
2024-03-24T00:51:42.757Z,0
2024-03-24T01:06:42.734Z,0
2024-03-24T01:21:42.735Z,0
2024-03-24T01:51:42.708Z,0
2024-03-24T02:21:42.674Z,0
2024-03-24T02:51:42.692Z,0
2024-03-24T03:21:42.671Z,0
2024-03-24T03:51:42.660Z,0
2024-03-24T04:21:42.623Z,0
2024-03-24T04:51:42.598Z,0
2024-03-24T05:21:42.588Z,0
2024-03-24T05:51:42.585Z,0
2024-03-24T06:21:42.557Z,4
2024-03-24T06:51:42.566Z,18
2024-03-24T07:21:42.534Z,18
2024-03-24T07:51:42.520Z,142
2024-03-24T08:21:42.527Z,168
2024-03-24T08:51:42.524Z,245
2024-03-24T09:21:42.479Z,257
2024-03-24T09:51:42.512Z,277
2024-03-24T10:21:42.468Z,236
2024-03-24T10:26:42.493Z,155
2024-03-24T10:36:42.494Z,141
2024-03-24T10:41:42.490Z,508
2024-03-24T10:46:42.480Z,221
2024-03-24T11:06:42.473Z,169
2024-03-24T11:11:42.496Z,137
2024-03-24T11:16:42.461Z,141
2024-03-24T11:41:42.440Z,67
2024-03-24T12:21:42.430Z,303
2024-03-24T12:51:42.448Z,44
2024-03-24T13:21:42.448Z,205
2024-03-24T13:51:42.387Z,29
2024-03-24T14:41:42.387Z,64
2024-03-24T15:16:42.340Z,51
2024-03-24T15:46:42.355Z,14
2024-03-24T16:16:42.400Z,0
2024-03-24T16:46:42.386Z,0
2024-03-24T17:41:42.390Z,1
2024-03-24T18:06:42.310Z,0
2024-03-24T18:36:42.341Z,0
2024-03-24T18:56:42.270Z,0
2024-03-24T19:11:42.333Z,0
2024-03-24T19:51:42.246Z,0
2024-03-24T20:11:42.245Z,0
2024-03-24T20:46:42.243Z,0
2024-03-24T21:06:42.199Z,0
2024-03-24T21:36:42.181Z,0
2024-03-24T22:36:42.177Z,0
2024-03-24T23:01:42.152Z,0
2024-03-24T23:31:42.193Z,0
